Time;durP1;ratioP1;P1;durP2;ratioP2;P2;SDS_P1;SDS_P2;PMS_P1;PMS_P2;Temp;Humidity;BMP_temperature;BMP_pressure;BME280_temperature;BME280_humidity;BME280_pressure;Samples;Min_cycle;Max_cycle;Signal;HPM_P1;HPM_P2
2022/10/29 00:01:45;;;;;;;6.95;6.20;;;12.50;99.90;;;;;;5062632;28;20213;-72
2022/10/29 00:04:10;;;;;;;9.88;6.82;;;12.50;99.90;;;;;;5069789;28;20249;-72
2022/10/29 00:06:36;;;;;;;9.18;7.13;;;12.50;99.90;;;;;;5068784;28;20202;-72
2022/10/29 00:09:03;;;;;;;10.05;6.45;;;12.40;99.90;;;;;;5071086;28;20226;-72
2022/10/29 00:11:29;;;;;;;7.07;6.38;;;12.40;99.90;;;;;;5072056;28;20182;-72
2022/10/29 00:13:57;;;;;;;6.95;6.35;;;12.40;99.90;;;;;;5067264;28;20188;-71
2022/10/29 00:16:26;;;;;;;9.40;7.15;;;12.30;99.90;;;;;;5075515;28;20211;-75
2022/10/29 00:18:53;;;;;;;7.68;6.95;;;12.30;99.90;;;;;;5077140;28;20263;-72
2022/10/29 00:21:20;;;;;;;9.70;6.70;;;12.30;99.90;;;;;;5067568;28;20171;-73
2022/10/29 00:23:47;;;;;;;8.23;6.93;;;12.20;99.90;;;;;;5071671;28;20199;-73
2022/10/29 00:26:13;;;;;;;7.85;7.07;;;12.10;99.90;;;;;;5074042;28;20212;-73
2022/10/29 00:28:39;;;;;;;8.20;7.30;;;12.10;99.90;;;;;;5064365;28;20179;-73
2022/10/29 00:31:10;;;;;;;10.23;7.50;;;12.20;99.90;;;;;;5064026;28;20180;-73
2022/10/29 00:33:36;;;;;;;9.82;7.13;;;12.10;99.90;;;;;;5071854;28;20270;-73
2022/10/29 00:36:06;;;;;;;8.50;7.45;;;12.10;99.90;;;;;;5073468;28;20226;-73
2022/10/29 00:38:33;;;;;;;11.15;7.88;;;12.10;99.90;;;;;;5071800;28;20179;-73
2022/10/29 00:40:59;;;;;;;11.52;7.90;;;12.10;99.90;;;;;;5073657;28;20179;-73
2022/10/29 00:43:26;;;;;;;8.60;7.68;;;12.20;99.90;;;;;;5074427;28;20174;-73
2022/10/29 00:46:06;;;;;;;8.40;7.22;;;12.10;99.90;;;;;;5068338;28;20210;-73
2022/10/29 00:48:36;;;;;;;12.93;8.25;;;12.10;99.90;;;;;;5071962;28;20541;-73
2022/10/29 00:51:05;;;;;;;8.80;7.88;;;12.10;99.90;;;;;;5076042;28;20238;-73
2022/10/29 00:53:35;;;;;;;8.73;7.82;;;12.10;99.90;;;;;;5073609;28;20258;-73
2022/10/29 00:56:01;;;;;;;8.35;7.55;;;12.20;99.90;;;;;;5069054;28;20218;-73
2022/10/29 00:58:28;;;;;;;12.15;8.70;;;12.20;99.90;;;;;;5071827;28;20211;-74
2022/10/29 01:00:54;;;;;;;9.15;7.68;;;12.20;99.90;;;;;;5073612;28;20175;-73
2022/10/29 01:03:19;;;;;;;11.07;8.27;;;12.20;99.90;;;;;;5066902;28;20177;-73
2022/10/29 01:05:47;;;;;;;11.88;8.43;;;12.30;99.90;;;;;;5077695;28;20206;-74
2022/10/29 01:08:14;;;;;;;9.73;8.02;;;12.30;99.90;;;;;;5070349;28;20518;-72
2022/10/29 01:11:11;;;;;;;10.07;8.30;;;12.30;99.90;;;;;;5062474;28;20266;-72
2022/10/29 01:13:52;;;;;;;8.35;7.60;;;12.20;99.90;;;;;;5067332;28;20183;-74
2022/10/29 01:16:24;;;;;;;9.82;7.88;;;12.20;99.90;;;;;;5071024;28;20304;-73
2022/10/29 01:19:01;;;;;;;10.15;8.00;;;12.10;99.90;;;;;;5070756;28;20583;-74
2022/10/29 01:21:37;;;;;;;8.93;7.93;;;12.10;99.90;;;;;;5070509;28;20717;-74
2022/10/29 01:24:35;;;;;;;10.35;7.63;;;12.10;99.90;;;;;;5077624;28;20720;-74
2022/10/29 01:27:32;;;;;;;10.50;8.07;;;12.00;99.90;;;;;;5070275;28;20218;-73
2022/10/29 01:30:14;;;;;;;9.57;8.13;;;12.00;99.90;;;;;;5072935;28;20186;-74
2022/10/29 01:33:01;;;;;;;8.93;7.78;;;12.00;99.90;;;;;;5066791;28;20187;-74
2022/10/29 01:35:53;;;;;;;8.98;7.63;;;12.00;99.90;;;;;;5067257;28;20239;-74
2022/10/29 01:38:22;;;;;;;11.10;7.50;;;12.00;99.90;;;;;;5069789;28;20178;-73
2022/10/29 01:41:13;;;;;;;9.68;7.00;;;12.00;99.90;;;;;;5072479;28;20218;-73
2022/10/29 01:43:51;;;;;;;8.13;7.25;;;12.10;99.90;;;;;;5066990;28;20179;-73
2022/10/29 01:46:26;;;;;;;7.90;7.10;;;12.20;99.90;;;;;;5070824;28;20206;-73
2022/10/29 01:48:56;;;;;;;8.00;7.20;;;12.20;99.90;;;;;;5075759;28;20238;-73
2022/10/29 01:51:31;;;;;;;9.45;7.63;;;12.20;99.90;;;;;;5068221;28;20175;-73
2022/10/29 01:53:59;;;;;;;8.85;7.95;;;12.20;99.90;;;;;;5068445;28;20179;-73
2022/10/29 01:56:24;;;;;;;10.00;7.63;;;12.20;99.90;;;;;;5067906;28;20209;-73
2022/10/29 01:58:53;;;;;;;10.93;7.43;;;12.10;99.90;;;;;;5072595;28;20693;-73
2022/10/29 02:01:19;;;;;;;8.63;7.70;;;12.10;99.90;;;;;;5073400;28;20231;-73
2022/10/29 02:04:23;;;;;;;9.00;7.55;;;12.10;99.90;;;;;;5069290;28;20206;-73
2022/10/29 02:07:11;;;;;;;12.75;8.07;;;12.10;99.90;;;;;;5068806;28;20283;-73
2022/10/29 02:10:07;;;;;;;9.88;8.18;;;12.00;99.90;;;;;;5070016;28;20178;-72
2022/10/29 02:12:45;;;;;;;7.85;6.97;;;11.90;99.90;;;;;;5066616;28;20175;-73
2022/10/29 02:15:26;;;;;;;12.07;7.60;;;11.90;99.90;;;;;;5069816;28;20187;-74
2022/10/29 02:17:52;;;;;;;10.88;8.02;;;11.90;99.90;;;;;;5066422;28;20207;-74
2022/10/29 02:20:18;;;;;;;9.75;7.80;;;12.00;99.90;;;;;;5072267;28;20174;-74
2022/10/29 02:22:44;;;;;;;8.85;7.70;;;12.00;99.90;;;;;;5067687;28;20175;-74
2022/10/29 02:25:10;;;;;;;9.38;7.20;;;12.00;99.90;;;;;;5080143;28;20179;-74
2022/10/29 02:27:35;;;;;;;8.57;7.65;;;12.10;99.90;;;;;;5074889;28;20175;-74
2022/10/29 02:30:01;;;;;;;8.52;7.57;;;12.20;99.90;;;;;;5080635;28;20185;-74
2022/10/29 02:32:27;;;;;;;9.38;7.50;;;12.20;99.90;;;;;;5077186;28;20167;-73
2022/10/29 02:34:52;;;;;;;9.88;7.70;;;12.20;99.90;;;;;;5072940;28;20224;-74
2022/10/29 02:37:18;;;;;;;9.65;8.38;;;12.30;99.90;;;;;;5074514;28;20194;-74
2022/10/29 02:39:44;;;;;;;14.30;9.32;;;12.20;99.90;;;;;;5078718;28;20634;-74
2022/10/29 02:42:09;;;;;;;14.95;9.00;;;12.00;99.90;;;;;;5075353;28;20573;-75
2022/10/29 02:44:35;;;;;;;11.88;8.75;;;11.90;99.90;;;;;;5072958;28;20233;-74
2022/10/29 02:47:00;;;;;;;11.05;9.23;;;11.90;99.90;;;;;;5071513;28;20219;-74
2022/10/29 02:49:26;;;;;;;11.82;8.68;;;11.90;99.90;;;;;;5081148;28;20209;-74
2022/10/29 02:51:52;;;;;;;11.73;8.82;;;11.80;99.90;;;;;;5074881;28;20180;-75
2022/10/29 02:54:18;;;;;;;11.57;8.85;;;11.80;99.90;;;;;;5072435;28;20182;-73
2022/10/29 02:56:43;;;;;;;12.45;8.65;;;11.70;99.90;;;;;;5068766;28;20195;-73
2022/10/29 02:59:09;;;;;;;12.18;9.07;;;11.70;99.90;;;;;;5070791;28;20259;-73
2022/10/29 03:01:37;;;;;;;12.00;8.77;;;11.80;99.90;;;;;;5073914;28;20175;-73
2022/10/29 03:04:03;;;;;;;12.48;8.32;;;11.70;99.90;;;;;;5073091;28;20191;-73
2022/10/29 03:06:28;;;;;;;9.63;8.70;;;11.70;99.90;;;;;;5076178;28;20199;-74
2022/10/29 03:08:54;;;;;;;8.80;7.93;;;11.60;99.90;;;;;;5056939;28;20650;-73
2022/10/29 03:11:20;;;;;;;12.55;8.88;;;11.60;99.90;;;;;;5071174;28;20202;-73
2022/10/29 03:13:45;;;;;;;12.15;8.95;;;11.60;99.90;;;;;;5077856;28;20193;-73
2022/10/29 03:16:11;;;;;;;16.17;9.00;;;11.60;99.90;;;;;;5075063;28;20616;-73
2022/10/29 03:18:37;;;;;;;12.15;9.35;;;11.60;99.90;;;;;;5075940;28;20724;-73
2022/10/29 03:21:02;;;;;;;12.48;8.52;;;11.50;99.90;;;;;;5073274;28;20372;-73
2022/10/29 03:23:28;;;;;;;12.25;8.48;;;11.60;99.90;;;;;;5071270;28;20190;-73
2022/10/29 03:25:55;;;;;;;11.27;9.93;;;11.70;99.90;;;;;;5071013;28;20274;-73
2022/10/29 03:28:22;;;;;;;12.20;9.88;;;11.60;99.90;;;;;;5075645;28;20745;-73
2022/10/29 03:30:47;;;;;;;13.70;9.25;;;11.50;99.90;;;;;;5062476;28;20724;-73
2022/10/29 03:33:13;;;;;;;11.48;9.05;;;11.40;99.90;;;;;;5059239;28;20179;-73
2022/10/29 03:35:39;;;;;;;14.15;10.27;;;11.40;99.90;;;;;;5059284;28;20215;-72
2022/10/29 03:38:05;;;;;;;14.60;9.07;;;11.50;99.90;;;;;;5059967;28;20262;-72
2022/10/29 03:40:30;;;;;;;12.95;10.40;;;11.50;99.90;;;;;;5057341;28;20690;-72
2022/10/29 03:42:56;;;;;;;10.40;8.65;;;11.50;99.90;;;;;;5055594;28;20186;-76
2022/10/29 03:45:22;;;;;;;15.68;9.70;;;11.60;99.90;;;;;;5060310;28;20582;-73
2022/10/29 03:47:47;;;;;;;16.05;10.05;;;11.60;99.90;;;;;;5061695;28;20236;-72
2022/10/29 03:50:13;;;;;;;11.63;10.35;;;11.60;99.90;;;;;;5057820;28;20186;-73
2022/10/29 03:52:39;;;;;;;12.30;8.80;;;11.60;99.90;;;;;;5063306;28;20524;-72
2022/10/29 03:55:05;;;;;;;14.40;10.23;;;11.60;99.90;;;;;;5058894;28;20187;-73
2022/10/29 03:57:31;;;;;;;12.60;9.95;;;11.60;99.90;;;;;;5061213;28;20203;-73
2022/10/29 03:59:56;;;;;;;15.05;10.43;;;11.50;99.90;;;;;;5063720;28;20180;-73
2022/10/29 04:02:23;;;;;;;14.00;9.93;;;11.50;99.90;;;;;;5059164;28;20180;-74
2022/10/29 04:04:49;;;;;;;14.50;9.55;;;11.50;99.90;;;;;;5075915;28;20274;-74
2022/10/29 04:07:14;;;;;;;12.07;10.77;;;11.50;99.90;;;;;;5058225;28;20294;-74
2022/10/29 04:09:40;;;;;;;14.23;9.70;;;11.40;99.90;;;;;;5057380;28;20266;-73
2022/10/29 04:12:06;;;;;;;12.90;10.93;;;11.40;99.90;;;;;;5061063;28;20567;-75
2022/10/29 04:14:32;;;;;;;13.73;10.50;;;11.30;99.90;;;;;;5064368;28;20176;-73
2022/10/29 04:16:58;;;;;;;16.52;11.73;;;11.20;99.90;;;;;;5059390;28;20215;-73
2022/10/29 04:19:24;;;;;;;12.70;11.23;;;11.20;99.90;;;;;;5058481;28;20637;-73
2022/10/29 04:21:49;;;;;;;16.13;10.68;;;11.20;99.90;;;;;;5058085;28;20193;-73
2022/10/29 04:24:15;;;;;;;15.13;11.02;;;11.20;99.90;;;;;;5055922;28;20179;-73
2022/10/29 04:26:44;;;;;;;15.20;11.70;;;11.20;99.90;;;;;;5059110;28;20200;-72
2022/10/29 04:29:10;;;;;;;18.25;11.13;;;11.20;99.90;;;;;;5056931;28;20653;-73
2022/10/29 04:31:36;;;;;;;17.52;11.88;;;11.20;99.90;;;;;;5061989;28;20215;-75
2022/10/29 04:34:02;;;;;;;15.13;12.32;;;11.10;99.90;;;;;;5064213;28;20184;-72
2022/10/29 04:36:28;;;;;;;13.90;11.82;;;11.00;99.90;;;;;;5066633;28;20597;-73
2022/10/29 04:38:54;;;;;;;19.08;11.68;;;11.00;99.90;;;;;;5065794;28;20180;-73
2022/10/29 04:41:19;;;;;;;16.55;11.85;;;11.00;99.90;;;;;;5065603;28;20601;-73
2022/10/29 04:43:45;;;;;;;12.55;11.13;;;11.00;99.90;;;;;;5060562;28;20252;-73
2022/10/29 04:46:11;;;;;;;13.43;10.88;;;11.10;99.90;;;;;;5062652;28;20258;-73
2022/10/29 04:48:37;;;;;;;15.20;11.90;;;11.20;99.90;;;;;;5077503;28;20263;-73
2022/10/29 04:51:03;;;;;;;17.25;11.25;;;11.20;99.90;;;;;;5065520;28;20241;-72
2022/10/29 04:53:29;;;;;;;18.85;10.95;;;11.20;99.90;;;;;;5055364;28;20192;-72
2022/10/29 04:56:04;;;;;;;18.27;12.38;;;11.20;99.90;;;;;;5058875;28;20252;-73
2022/10/29 04:58:30;;;;;;;16.27;12.27;;;11.20;99.90;;;;;;5053923;28;20281;-73
2022/10/29 05:01:03;;;;;;;20.45;11.75;;;11.10;99.90;;;;;;5054302;28;20537;-73
2022/10/29 05:03:29;;;;;;;17.08;12.77;;;11.10;99.90;;;;;;5055309;28;20172;-73
2022/10/29 05:05:55;;;;;;;15.57;11.77;;;11.00;99.90;;;;;;5053724;28;20256;-73
2022/10/29 05:08:21;;;;;;;16.20;12.73;;;11.00;99.90;;;;;;5054228;28;20179;-73
2022/10/29 05:10:46;;;;;;;16.42;11.75;;;11.00;99.90;;;;;;5055087;28;20324;-72
2022/10/29 05:13:13;;;;;;;15.05;11.77;;;11.00;99.90;;;;;;5055956;28;20187;-74
2022/10/29 05:15:39;;;;;;;17.85;12.52;;;11.00;99.90;;;;;;5055727;28;20206;-73
2022/10/29 05:18:05;;;;;;;18.25;12.77;;;10.90;99.90;;;;;;5061270;28;20203;-73
2022/10/29 05:20:31;;;;;;;15.65;11.88;;;10.80;99.90;;;;;;5058534;28;20229;-73
2022/10/29 05:22:59;;;;;;;14.63;12.05;;;10.80;99.90;;;;;;5054820;28;20184;-74
2022/10/29 05:25:25;;;;;;;13.95;11.30;;;10.80;99.90;;;;;;5058868;28;20203;-73
2022/10/29 05:28:18;;;;;;;19.50;13.07;;;10.80;99.90;;;;;;5058284;28;20237;-73
2022/10/29 05:30:44;;;;;;;15.68;12.20;;;10.80;99.90;;;;;;5053778;28;20562;-73
2022/10/29 05:33:12;;;;;;;16.70;12.60;;;10.80;99.90;;;;;;5053227;28;20184;-73
2022/10/29 05:35:37;;;;;;;14.80;10.88;;;10.80;99.90;;;;;;5054030;28;20204;-72
2022/10/29 05:38:03;;;;;;;17.52;12.43;;;10.80;99.90;;;;;;5055927;28;20218;-72
2022/10/29 05:40:29;;;;;;;13.68;11.45;;;10.80;99.90;;;;;;5056875;28;20176;-73
2022/10/29 05:42:55;;;;;;;15.40;10.88;;;10.80;99.90;;;;;;5060660;28;20168;-72
2022/10/29 05:45:21;;;;;;;13.80;10.93;;;10.80;99.90;;;;;;5064284;28;20214;-73
2022/10/29 05:47:46;;;;;;;13.35;11.90;;;10.80;99.90;;;;;;5055713;28;20191;-73
2022/10/29 05:50:13;;;;;;;18.30;12.55;;;10.80;99.90;;;;;;5057816;28;20200;-73
2022/10/29 05:52:39;;;;;;;15.80;12.27;;;10.80;99.90;;;;;;5059497;28;20179;-73
2022/10/29 05:55:05;;;;;;;15.52;12.30;;;10.70;99.90;;;;;;5062169;28;20237;-73
2022/10/29 05:57:31;;;;;;;20.80;12.63;;;10.80;99.90;;;;;;5056516;28;20595;-73
2022/10/29 05:59:57;;;;;;;17.75;12.15;;;10.80;99.90;;;;;;5055208;28;20233;-76
2022/10/29 06:02:22;;;;;;;17.08;12.10;;;10.90;99.90;;;;;;5058562;28;20292;-73
2022/10/29 06:04:48;;;;;;;12.65;11.35;;;10.90;99.90;;;;;;5054028;28;20642;-78
2022/10/29 06:07:14;;;;;;;12.88;11.27;;;11.00;99.90;;;;;;5057083;28;20265;-74
2022/10/29 06:09:39;;;;;;;14.52;11.20;;;11.10;99.90;;;;;;5055998;28;20198;-73
2022/10/29 06:12:05;;;;;;;21.10;12.10;;;11.10;99.90;;;;;;5053576;28;20536;-74
2022/10/29 06:14:31;;;;;;;15.15;11.45;;;11.20;99.90;;;;;;5056314;28;20267;-74
2022/10/29 06:16:57;;;;;;;18.25;11.90;;;11.20;99.90;;;;;;5054333;28;20263;-73
2022/10/29 06:19:22;;;;;;;14.23;10.52;;;11.30;99.90;;;;;;5058515;28;20229;-73
2022/10/29 06:21:48;;;;;;;13.55;11.27;;;11.50;99.90;;;;;;5054377;28;20195;-74
2022/10/29 06:24:13;;;;;;;13.45;10.90;;;11.60;99.90;;;;;;5058965;28;20178;-74
2022/10/29 06:26:39;;;;;;;13.77;10.80;;;11.60;99.90;;;;;;5061370;28;20202;-74
2022/10/29 06:29:05;;;;;;;17.23;11.45;;;11.70;99.90;;;;;;5056139;28;20538;-77
2022/10/29 06:31:31;;;;;;;15.05;11.00;;;11.80;99.90;;;;;;5057309;28;20171;-76
2022/10/29 06:33:57;;;;;;;13.30;10.50;;;11.90;99.90;;;;;;5060703;28;20765;-77
2022/10/29 06:36:22;;;;;;;13.60;11.07;;;12.00;99.90;;;;;;5057270;28;20259;-74
2022/10/29 06:38:48;;;;;;;15.55;11.70;;;12.00;99.90;;;;;;5061108;28;20598;-77
2022/10/29 06:41:14;;;;;;;15.32;11.55;;;12.10;99.90;;;;;;5058040;28;20906;-75
2022/10/29 06:43:40;;;;;;;15.25;11.02;;;12.10;99.90;;;;;;5058242;28;20275;-80
2022/10/29 06:46:06;;;;;;;14.38;11.45;;;12.20;99.90;;;;;;5074384;28;20310;-77
2022/10/29 06:48:31;;;;;;;13.13;11.55;;;12.20;99.90;;;;;;5057924;28;20179;-77
2022/10/29 06:51:01;;;;;;;16.30;11.30;;;12.20;99.90;;;;;;5084612;28;20184;-79
2022/10/29 06:53:30;;;;;;;13.88;11.15;;;12.20;99.90;;;;;;5061044;28;20184;-77
2022/10/29 06:55:58;;;;;;;16.05;10.77;;;12.20;99.90;;;;;;5058980;28;20199;-77
2022/10/29 06:58:24;;;;;;;15.25;11.10;;;12.20;99.90;;;;;;5064662;28;20686;-77
2022/10/29 07:00:51;;;;;;;13.80;10.98;;;12.30;99.90;;;;;;5055409;28;20184;-77
2022/10/29 07:03:19;;;;;;;12.88;10.75;;;12.40;99.90;;;;;;5058389;28;20171;-77
2022/10/29 07:05:45;;;;;;;14.68;11.32;;;12.50;99.90;;;;;;5057936;28;20282;-77
2022/10/29 07:08:11;;;;;;;13.27;9.48;;;12.60;99.90;;;;;;5058917;28;20337;-77
2022/10/29 07:10:37;;;;;;;17.00;10.88;;;12.60;99.90;;;;;;5067550;28;20223;-80
2022/10/29 07:13:02;;;;;;;16.95;11.07;;;12.60;99.90;;;;;;5070216;28;20187;-78
2022/10/29 07:15:29;;;;;;;14.43;11.07;;;12.70;99.90;;;;;;5081631;28;20217;-79
2022/10/29 07:18:05;;;;;;;17.65;10.93;;;12.70;99.90;;;;;;5070210;28;20243;-78
2022/10/29 07:20:34;;;;;;;17.13;10.88;;;12.70;99.90;;;;;;5062451;28;20170;-79
2022/10/29 07:23:00;;;;;;;11.80;10.10;;;12.70;99.90;;;;;;5065133;28;20179;-78
2022/10/29 07:25:27;;;;;;;11.93;10.65;;;12.80;99.90;;;;;;5057528;28;20207;-78
2022/10/29 07:27:53;;;;;;;14.43;10.93;;;12.90;99.90;;;;;;5063311;28;20172;-76
2022/10/29 07:30:19;;;;;;;13.73;10.50;;;13.00;99.90;;;;;;5059000;28;20657;-77
2022/10/29 07:32:45;;;;;;;13.48;10.23;;;13.10;99.90;;;;;;5077816;28;20543;-75
2022/10/29 07:35:10;;;;;;;14.57;10.68;;;13.10;99.90;;;;;;5061640;28;20184;-76
2022/10/29 07:37:36;;;;;;;14.80;10.52;;;13.30;99.90;;;;;;5060393;28;20227;-76
2022/10/29 07:40:02;;;;;;;11.57;9.85;;;13.40;99.90;;;;;;5063526;28;20184;-74
2022/10/29 07:42:28;;;;;;;12.40;9.10;;;13.50;99.90;;;;;;5058634;28;20191;-76
2022/10/29 07:44:54;;;;;;;13.23;9.77;;;13.60;99.90;;;;;;5062209;28;20196;-75
2022/10/29 07:47:19;;;;;;;13.35;10.23;;;13.80;99.90;;;;;;5060455;28;20766;-75
2022/10/29 07:49:45;;;;;;;11.98;10.52;;;13.80;99.90;;;;;;5074840;28;20199;-75
2022/10/29 07:52:10;;;;;;;12.00;10.32;;;13.90;99.90;;;;;;5063049;28;20223;-76
2022/10/29 07:54:36;;;;;;;11.85;10.18;;;13.90;99.90;;;;;;5056263;28;20551;-76
2022/10/29 07:57:02;;;;;;;12.38;9.27;;;14.00;99.90;;;;;;5064149;28;20885;-74
2022/10/29 07:59:27;;;;;;;10.70;9.60;;;14.00;99.90;;;;;;5057094;28;20221;-75
2022/10/29 08:01:53;;;;;;;14.13;10.40;;;14.10;99.90;;;;;;5055613;28;20642;-76
2022/10/29 08:04:19;;;;;;;11.20;9.25;;;14.20;99.90;;;;;;5056762;28;20190;-75
2022/10/29 08:06:44;;;;;;;11.68;9.52;;;14.20;99.90;;;;;;5056520;28;20294;-75
2022/10/29 08:09:11;;;;;;;12.27;9.68;;;14.10;99.90;;;;;;5056818;28;20228;-76
2022/10/29 08:11:36;;;;;;;14.27;10.13;;;14.10;99.90;;;;;;5057528;28;20176;-77
2022/10/29 08:14:02;;;;;;;12.35;9.90;;;14.10;99.90;;;;;;5060900;28;20944;-76
2022/10/29 08:16:28;;;;;;;12.43;9.18;;;14.10;99.90;;;;;;5062618;28;20233;-79
2022/10/29 08:18:54;;;;;;;14.15;9.70;;;14.10;99.90;;;;;;5063998;28;20252;-76
2022/10/29 08:21:19;;;;;;;11.13;9.63;;;14.10;99.90;;;;;;5063780;28;20175;-77
2022/10/29 08:23:45;;;;;;;13.20;9.68;;;14.10;99.90;;;;;;5058012;28;20595;-78
2022/10/29 08:26:11;;;;;;;11.98;9.00;;;14.30;99.90;;;;;;5059792;28;20218;-78
2022/10/29 08:28:36;;;;;;;11.23;10.00;;;14.40;99.90;;;;;;5058212;28;20178;-77
2022/10/29 08:31:02;;;;;;;13.18;9.88;;;14.40;99.90;;;;;;5057292;28;20262;-78
2022/10/29 08:33:28;;;;;;;10.63;9.40;;;14.40;99.90;;;;;;5059716;28;20530;-74
2022/10/29 08:35:54;;;;;;;12.40;8.48;;;14.40;99.90;;;;;;5058767;28;20217;-75
2022/10/29 08:38:22;;;;;;;11.05;9.82;;;14.50;99.90;;;;;;5058324;28;20211;-75
2022/10/29 08:40:50;;;;;;;12.02;9.27;;;14.50;99.90;;;;;;5057208;28;20263;-75
2022/10/29 08:43:19;;;;;;;13.85;9.85;;;14.50;99.90;;;;;;5056970;28;20192;-75
2022/10/29 08:45:50;;;;;;;11.65;10.00;;;14.70;99.90;;;;;;5059608;28;20211;-76
2022/10/29 08:48:37;;;;;;;11.15;9.50;;;14.80;99.90;;;;;;5059563;28;20191;-76
2022/10/29 08:51:09;;;;;;;11.10;8.77;;;14.90;99.90;;;;;;5058372;28;20171;-74
2022/10/29 08:53:54;;;;;;;12.65;9.63;;;15.10;99.90;;;;;;5058977;28;20189;-74
2022/10/29 08:56:27;;;;;;;11.45;9.52;;;15.30;99.90;;;;;;5059557;28;20198;-75
2022/10/29 08:59:12;;;;;;;10.52;9.30;;;15.50;99.90;;;;;;5057177;28;20172;-74
2022/10/29 09:01:38;;;;;;;10.27;9.18;;;15.50;99.90;;;;;;5057273;28;20183;-74
2022/10/29 09:04:23;;;;;;;11.70;9.23;;;15.60;99.90;;;;;;5058619;28;20238;-74
2022/10/29 09:07:06;;;;;;;13.60;9.15;;;15.60;99.90;;;;;;5058061;28;20202;-75
2022/10/29 09:09:48;;;;;;;11.88;9.45;;;15.90;99.90;;;;;;5058785;28;20232;-75
2022/10/29 09:12:32;;;;;;;10.60;8.65;;;16.30;99.90;;;;;;5055243;28;20179;-74
2022/10/29 09:15:20;;;;;;;10.15;8.98;;;17.10;99.90;;;;;;5057328;28;20226;-74
2022/10/29 09:18:01;;;;;;;8.98;7.65;;;19.00;99.90;;;;;;5056091;28;20203;-74
2022/10/29 09:20:58;;;;;;;8.63;7.82;;;21.00;99.90;;;;;;5056037;28;20182;-74
2022/10/29 09:24:07;;;;;;;8.23;7.32;;;22.10;99.90;;;;;;5055659;28;20173;-73
2022/10/29 09:26:39;;;;;;;9.43;7.75;;;21.90;99.90;;;;;;5055392;28;20298;-73
2022/10/29 09:29:23;;;;;;;11.02;8.50;;;22.00;99.90;;;;;;5054662;28;20279;-73
2022/10/29 09:32:21;;;;;;;8.85;7.95;;;21.80;99.90;;;;;;5055415;28;20222;-74
2022/10/29 09:34:51;;;;;;;15.57;8.23;;;21.10;99.90;;;;;;5056779;28;20198;-74
2022/10/29 09:37:36;;;;;;;13.65;8.23;;;20.60;99.90;;;;;;5053692;28;20221;-74
2022/10/29 09:40:11;;;;;;;8.32;7.45;;;19.90;99.90;;;;;;5055730;28;20239;-73
2022/10/29 09:42:39;;;;;;;11.55;8.45;;;19.40;99.90;;;;;;5055678;28;20175;-74
2022/10/29 09:45:08;;;;;;;9.10;7.30;;;19.00;99.90;;;;;;5054586;28;20184;-74
2022/10/29 09:48:05;;;;;;;9.52;7.60;;;19.00;99.90;;;;;;5056089;28;20176;-74
2022/10/29 09:50:56;;;;;;;8.35;7.50;;;19.30;99.90;;;;;;5053259;28;20190;-74
2022/10/29 09:53:22;;;;;;;8.25;7.45;;;21.30;99.90;;;;;;5053415;28;20191;-74
2022/10/29 09:55:52;;;;;;;9.75;7.68;;;22.70;99.90;;;;;;5064122;28;20203;-75
2022/10/29 09:58:24;;;;;;;8.10;7.28;;;22.90;99.90;;;;;;5058669;28;20201;-77
2022/10/29 10:00:51;;;;;;;9.05;7.22;;;22.60;99.90;;;;;;5065145;28;20349;-77
2022/10/29 10:03:36;;;;;;;8.55;7.03;;;22.40;99.90;;;;;;5060771;28;20182;-76
2022/10/29 10:06:02;;;;;;;9.60;7.43;;;22.00;99.90;;;;;;5060056;28;20275;-75
2022/10/29 10:08:28;;;;;;;8.75;7.30;;;21.60;99.90;;;;;;5065806;28;20265;-76
2022/10/29 10:11:00;;;;;;;8.88;7.35;;;21.20;99.90;;;;;;5070772;28;20261;-80
2022/10/29 10:13:29;;;;;;;9.55;7.40;;;20.70;99.90;;;;;;5071309;28;20178;-79
2022/10/29 10:15:59;;;;;;;11.02;7.07;;;20.90;99.90;;;;;;5077778;28;20213;-79
2022/10/29 10:18:31;;;;;;;9.50;7.57;;;21.80;99.90;;;;;;5073949;28;20277;-80
2022/10/29 10:21:01;;;;;;;8.93;7.15;;;22.90;99.90;;;;;;5071702;28;20584;-80
2022/10/29 10:23:41;;;;;;;8.30;6.28;;;24.20;99.90;;;;;;5066497;28;20174;-79
2022/10/29 10:26:30;;;;;;;10.75;7.07;;;24.90;99.90;;;;;;5076507;28;20191;-81
2022/10/29 10:29:23;;;;;;;8.30;6.55;;;25.60;99.90;;;;;;5071918;28;20547;-77
2022/10/29 10:32:10;;;;;;;6.45;5.85;;;26.90;97.40;;;;;;5077124;28;20172;-78
2022/10/29 10:34:38;;;;;;;8.38;5.80;;;28.40;92.90;;;;;;5070581;28;20179;-76
2022/10/29 10:37:16;;;;;;;9.23;6.63;;;29.40;89.50;;;;;;5072164;28;20574;-76
2022/10/29 10:39:48;;;;;;;9.45;5.80;;;29.20;85.20;;;;;;5064395;28;20180;-76
2022/10/29 10:42:35;;;;;;;8.45;5.82;;;28.70;85.30;;;;;;5091232;28;20595;-74
2022/10/29 10:45:16;;;;;;;6.65;5.82;;;28.30;86.20;;;;;;5070210;28;20195;-74
2022/10/29 10:47:46;;;;;;;6.30;5.70;;;29.40;83.60;;;;;;5071712;28;20186;-77
2022/10/29 10:50:21;;;;;;;5.43;4.75;;;30.60;78.40;;;;;;5075563;28;20206;-76
2022/10/29 10:52:48;;;;;;;8.75;5.47;;;31.90;73.40;;;;;;5071151;28;20231;-75
2022/10/29 10:55:21;;;;;;;9.15;6.25;;;32.00;70.10;;;;;;5069683;28;20672;-74
2022/10/29 10:58:10;;;;;;;6.05;5.45;;;32.30;68.50;;;;;;5072543;28;20278;-75
2022/10/29 11:00:42;;;;;;;6.22;5.65;;;32.60;66.90;;;;;;5062969;28;20167;-76
2022/10/29 11:03:12;;;;;;;9.13;5.40;;;32.30;66.00;;;;;;5067431;28;20178;-75
2022/10/29 11:05:43;;;;;;;6.60;5.47;;;32.50;65.10;;;;;;5067399;28;20210;-76
2022/10/29 11:08:11;;;;;;;6.82;5.65;;;32.10;65.40;;;;;;5077446;28;20828;-75
2022/10/29 11:10:45;;;;;;;5.60;5.10;;;31.60;65.90;;;;;;5073786;28;20174;-76
2022/10/29 11:13:21;;;;;;;5.82;5.32;;;30.70;67.00;;;;;;5070450;28;20179;-77
2022/10/29 11:16:12;;;;;;;11.40;5.95;;;29.90;69.60;;;;;;5072835;28;20194;-75
2022/10/29 11:18:43;;;;;;;8.25;5.50;;;29.00;71.70;;;;;;5062984;28;20200;-76
2022/10/29 11:21:53;;;;;;;7.07;5.35;;;29.30;72.50;;;;;;5071213;28;20213;-75
2022/10/29 11:24:45;;;;;;;5.97;5.13;;;31.00;69.30;;;;;;5012069;28;20186;-75
2022/10/29 11:27:29;;;;;;;7.15;5.20;;;32.90;64.70;;;;;;5028146;28;20247;-77
2022/10/29 11:30:08;;;;;;;6.95;5.55;;;33.70;61.20;;;;;;5068401;28;20273;-76
2022/10/29 11:32:43;;;;;;;7.38;5.20;;;33.60;60.60;;;;;;5071967;28;20270;-76
2022/10/29 11:35:13;;;;;;;7.25;5.47;;;34.20;59.60;;;;;;5076362;28;20174;-76
2022/10/29 11:37:47;;;;;;;7.85;5.35;;;34.60;58.70;;;;;;5072710;28;20561;-75
2022/10/29 11:40:27;;;;;;;8.65;4.70;;;34.80;57.70;;;;;;5079220;28;20183;-76
2022/10/29 11:42:53;;;;;;;8.25;5.10;;;35.30;57.20;;;;;;5062998;28;20634;-77
2022/10/29 11:45:47;;;;;;;7.35;5.00;;;35.80;56.00;;;;;;5061093;28;20206;-75
2022/10/29 11:48:25;;;;;;;7.70;5.40;;;36.10;54.90;;;;;;5063935;28;20179;-74
2022/10/29 11:51:10;;;;;;;12.63;5.50;;;36.50;53.70;;;;;;5064988;28;20676;-74
2022/10/29 11:53:56;;;;;;;7.45;4.82;;;36.80;53.30;;;;;;5076394;28;20533;-73
2022/10/29 11:56:28;;;;;;;6.38;5.22;;;37.00;52.60;;;;;;5071855;28;20236;-75
2022/10/29 11:59:15;;;;;;;11.35;4.70;;;37.60;51.70;;;;;;5072780;28;20175;-75
2022/10/29 12:02:18;;;;;;;8.50;4.80;;;37.70;50.90;;;;;;5073188;28;20174;-75
2022/10/29 12:04:53;;;;;;;6.53;4.93;;;37.30;51.10;;;;;;5077318;28;20174;-75
2022/10/29 12:07:34;;;;;;;5.85;4.70;;;37.20;51.60;;;;;;5065759;28;20189;-74
2022/10/29 12:10:24;;;;;;;5.03;4.53;;;37.30;50.90;;;;;;5070436;28;20693;-74
2022/10/29 12:13:19;;;;;;;8.73;4.80;;;37.40;50.40;;;;;;5070580;28;20262;-72
2022/10/29 12:15:50;;;;;;;9.30;5.50;;;37.40;50.60;;;;;;5071083;28;20191;-73
2022/10/29 12:18:24;;;;;;;6.22;4.82;;;37.20;50.40;;;;;;5073957;28;20260;-73
2022/10/29 12:21:05;;;;;;;6.25;4.95;;;36.90;50.80;;;;;;5063996;28;20181;-72
2022/10/29 12:23:50;;;;;;;6.20;4.80;;;36.90;51.00;;;;;;5066442;28;20220;-75
2022/10/29 12:26:41;;;;;;;6.43;5.20;;;36.90;51.20;;;;;;5070081;28;20628;-74
2022/10/29 12:29:09;;;;;;;9.13;4.88;;;37.00;51.00;;;;;;5062692;28;20179;-74
2022/10/29 12:31:44;;;;;;;7.50;4.85;;;36.20;51.30;;;;;;5069674;28;20252;-74
2022/10/29 12:34:41;;;;;;;5.82;4.65;;;35.70;52.10;;;;;;5074534;28;20198;-74
2022/10/29 12:37:06;;;;;;;10.27;5.20;;;35.50;52.40;;;;;;5067381;28;20273;-74
2022/10/29 12:39:43;;;;;;;4.78;4.20;;;35.20;53.00;;;;;;5071818;28;20273;-74
2022/10/29 12:42:19;;;;;;;9.25;5.40;;;35.00;53.50;;;;;;5071219;28;20178;-74
2022/10/29 12:45:03;;;;;;;8.13;4.65;;;34.50;54.40;;;;;;5062238;28;20649;-73
2022/10/29 12:47:48;;;;;;;6.28;4.47;;;33.80;54.80;;;;;;5068692;28;20645;-73
2022/10/29 12:50:42;;;;;;;6.07;4.35;;;33.10;56.30;;;;;;5090491;28;20308;-73
2022/10/29 12:53:23;;;;;;;6.38;4.47;;;32.60;57.50;;;;;;5080246;28;20175;-73
2022/10/29 12:55:50;;;;;;;8.65;5.28;;;32.50;58.60;;;;;;5062274;28;20244;-73
2022/10/29 12:58:53;;;;;;;5.60;4.90;;;32.20;58.60;;;;;;5063193;28;20199;-73
2022/10/29 13:01:24;;;;;;;8.10;6.13;;;31.70;59.20;;;;;;5065312;28;20213;-73